sensor_id;sensor_type;location;lat;lon;timestamp;temperature;humidity
56542;DHT22;42438;53.174;6.730;2023-05-14T00:01:17;10.80;99.90
56542;DHT22;42438;53.174;6.730;2023-05-14T00:03:48;10.80;99.90
56542;DHT22;42438;53.174;6.730;2023-05-14T00:06:19;10.80;99.90
56542;DHT22;42438;53.174;6.730;2023-05-14T00:08:49;10.80;99.90
56542;DHT22;42438;53.174;6.730;2023-05-14T00:11:20;10.80;99.90
56542;DHT22;42438;53.174;6.730;2023-05-14T00:13:50;10.80;99.90
56542;DHT22;42438;53.174;6.730;2023-05-14T00:16:21;10.80;99.90
56542;DHT22;42438;53.174;6.730;2023-05-14T00:18:52;10.80;99.90
56542;DHT22;42438;53.174;6.730;2023-05-14T00:21:22;10.80;99.90
56542;DHT22;42438;53.174;6.730;2023-05-14T00:23:53;10.80;99.90
56542;DHT22;42438;53.174;6.730;2023-05-14T00:26:23;10.80;99.90
56542;DHT22;42438;53.174;6.730;2023-05-14T00:28:54;10.80;99.90
56542;DHT22;42438;53.174;6.730;2023-05-14T00:31:25;10.80;99.90
56542;DHT22;42438;53.174;6.730;2023-05-14T00:33:55;10.80;99.90
56542;DHT22;42438;53.174;6.730;2023-05-14T00:36:26;10.70;99.90
56542;DHT22;42438;53.174;6.730;2023-05-14T00:38:57;10.70;99.90
56542;DHT22;42438;53.174;6.730;2023-05-14T00:41:27;10.70;99.90
56542;DHT22;42438;53.174;6.730;2023-05-14T00:43:58;10.70;99.90
56542;DHT22;42438;53.174;6.730;2023-05-14T00:46:29;10.70;99.90
56542;DHT22;42438;53.174;6.730;2023-05-14T00:48:59;10.70;99.90
56542;DHT22;42438;53.174;6.730;2023-05-14T00:51:30;10.70;99.90
56542;DHT22;42438;53.174;6.730;2023-05-14T00:54:01;10.70;99.90
56542;DHT22;42438;53.174;6.730;2023-05-14T00:56:33;10.60;99.90
56542;DHT22;42438;53.174;6.730;2023-05-14T00:59:04;10.60;99.90
56542;DHT22;42438;53.174;6.730;2023-05-14T01:01:34;10.60;99.90
56542;DHT22;42438;53.174;6.730;2023-05-14T01:04:06;10.60;99.90
56542;DHT22;42438;53.174;6.730;2023-05-14T01:09:50;10.60;99.90
56542;DHT22;42438;53.174;6.730;2023-05-14T01:15:11;10.40;99.90
56542;DHT22;42438;53.174;6.730;2023-05-14T01:18:03;10.40;99.90
56542;DHT22;42438;53.174;6.730;2023-05-14T01:20:34;10.30;99.90
56542;DHT22;42438;53.174;6.730;2023-05-14T01:23:05;10.30;99.90
56542;DHT22;42438;53.174;6.730;2023-05-14T01:25:36;10.30;99.90
56542;DHT22;42438;53.174;6.730;2023-05-14T01:28:08;10.20;99.90
56542;DHT22;42438;53.174;6.730;2023-05-14T01:30:44;10.20;99.90
56542;DHT22;42438;53.174;6.730;2023-05-14T01:33:16;10.30;99.90
56542;DHT22;42438;53.174;6.730;2023-05-14T01:35:48;10.30;99.90
56542;DHT22;42438;53.174;6.730;2023-05-14T01:38:19;10.30;99.90
56542;DHT22;42438;53.174;6.730;2023-05-14T01:40:51;10.20;99.90
56542;DHT22;42438;53.174;6.730;2023-05-14T01:43:23;10.20;99.90
56542;DHT22;42438;53.174;6.730;2023-05-14T01:45:53;10.20;99.90
56542;DHT22;42438;53.174;6.730;2023-05-14T01:48:24;10.00;99.90
56542;DHT22;42438;53.174;6.730;2023-05-14T01:50:55;10.00;99.90
56542;DHT22;42438;53.174;6.730;2023-05-14T01:53:26;10.00;99.90
56542;DHT22;42438;53.174;6.730;2023-05-14T01:55:56;9.90;99.90
56542;DHT22;42438;53.174;6.730;2023-05-14T01:58:27;9.80;99.90
56542;DHT22;42438;53.174;6.730;2023-05-14T02:00:57;9.80;99.90
56542;DHT22;42438;53.174;6.730;2023-05-14T02:03:28;9.80;1.00
56542;DHT22;42438;53.174;6.730;2023-05-14T02:05:59;9.70;1.00
56542;DHT22;42438;53.174;6.730;2023-05-14T02:08:29;9.70;1.00
56542;DHT22;42438;53.174;6.730;2023-05-14T02:11:00;9.70;1.00
56542;DHT22;42438;53.174;6.730;2023-05-14T02:13:31;9.60;1.00
56542;DHT22;42438;53.174;6.730;2023-05-14T02:16:01;9.50;1.00
56542;DHT22;42438;53.174;6.730;2023-05-14T02:18:32;9.50;1.00
56542;DHT22;42438;53.174;6.730;2023-05-14T02:21:03;9.60;1.00
56542;DHT22;42438;53.174;6.730;2023-05-14T02:23:33;9.70;1.00
56542;DHT22;42438;53.174;6.730;2023-05-14T02:26:04;9.80;1.00
56542;DHT22;42438;53.174;6.730;2023-05-14T02:28:35;9.80;1.00
56542;DHT22;42438;53.174;6.730;2023-05-14T02:31:05;9.90;1.00
56542;DHT22;42438;53.174;6.730;2023-05-14T02:33:36;9.90;1.00
56542;DHT22;42438;53.174;6.730;2023-05-14T02:36:07;9.90;1.00
56542;DHT22;42438;53.174;6.730;2023-05-14T02:38:38;9.90;1.00
56542;DHT22;42438;53.174;6.730;2023-05-14T02:41:08;9.90;1.00
56542;DHT22;42438;53.174;6.730;2023-05-14T02:43:39;9.90;1.00
56542;DHT22;42438;53.174;6.730;2023-05-14T02:46:10;9.90;1.00
56542;DHT22;42438;53.174;6.730;2023-05-14T02:48:41;9.90;1.00
56542;DHT22;42438;53.174;6.730;2023-05-14T02:51:11;9.90;1.00
56542;DHT22;42438;53.174;6.730;2023-05-14T02:53:42;9.90;1.00
56542;DHT22;42438;53.174;6.730;2023-05-14T02:56:12;9.90;1.00
56542;DHT22;42438;53.174;6.730;2023-05-14T02:58:43;9.90;1.00
56542;DHT22;42438;53.174;6.730;2023-05-14T03:01:14;9.90;1.00
56542;DHT22;42438;53.174;6.730;2023-05-14T03:03:44;9.70;1.00
56542;DHT22;42438;53.174;6.730;2023-05-14T03:06:15;9.70;1.00
56542;DHT22;42438;53.174;6.730;2023-05-14T03:08:45;9.70;1.00
56542;DHT22;42438;53.174;6.730;2023-05-14T03:11:16;9.60;1.00
56542;DHT22;42438;53.174;6.730;2023-05-14T03:13:47;9.50;1.00
56542;DHT22;42438;53.174;6.730;2023-05-14T03:16:17;9.40;1.00
56542;DHT22;42438;53.174;6.730;2023-05-14T03:18:48;9.40;1.00
56542;DHT22;42438;53.174;6.730;2023-05-14T03:21:19;9.40;1.00
56542;DHT22;42438;53.174;6.730;2023-05-14T03:23:51;9.40;1.00
56542;DHT22;42438;53.174;6.730;2023-05-14T03:26:22;9.30;1.00
56542;DHT22;42438;53.174;6.730;2023-05-14T03:28:53;9.20;1.00
56542;DHT22;42438;53.174;6.730;2023-05-14T03:31:24;9.20;1.00
56542;DHT22;42438;53.174;6.730;2023-05-14T03:33:55;9.10;1.00
56542;DHT22;42438;53.174;6.730;2023-05-14T03:36:25;9.10;1.00
56542;DHT22;42438;53.174;6.730;2023-05-14T03:38:56;9.20;1.00
56542;DHT22;42438;53.174;6.730;2023-05-14T03:41:26;9.20;1.00
56542;DHT22;42438;53.174;6.730;2023-05-14T03:43:57;9.30;1.00
56542;DHT22;42438;53.174;6.730;2023-05-14T03:46:28;9.40;1.00
56542;DHT22;42438;53.174;6.730;2023-05-14T03:48:58;9.20;1.00
56542;DHT22;42438;53.174;6.730;2023-05-14T03:51:29;9.10;1.00
56542;DHT22;42438;53.174;6.730;2023-05-14T03:54:03;9.10;1.00
56542;DHT22;42438;53.174;6.730;2023-05-14T03:56:34;9.10;1.00
56542;DHT22;42438;53.174;6.730;2023-05-14T03:59:04;9.20;1.00
56542;DHT22;42438;53.174;6.730;2023-05-14T04:01:35;9.20;1.00
56542;DHT22;42438;53.174;6.730;2023-05-14T04:04:05;9.20;1.00
56542;DHT22;42438;53.174;6.730;2023-05-14T04:06:36;9.30;1.00
56542;DHT22;42438;53.174;6.730;2023-05-14T04:09:07;9.30;1.00
56542;DHT22;42438;53.174;6.730;2023-05-14T04:11:37;9.30;1.00
56542;DHT22;42438;53.174;6.730;2023-05-14T04:14:08;9.30;1.00
56542;DHT22;42438;53.174;6.730;2023-05-14T04:16:38;9.40;1.00
56542;DHT22;42438;53.174;6.730;2023-05-14T04:19:09;9.30;1.00
56542;DHT22;42438;53.174;6.730;2023-05-14T04:21:40;9.30;1.00
56542;DHT22;42438;53.174;6.730;2023-05-14T04:24:10;9.30;1.00
56542;DHT22;42438;53.174;6.730;2023-05-14T04:26:41;9.30;1.00
56542;DHT22;42438;53.174;6.730;2023-05-14T04:29:11;9.50;1.00
56542;DHT22;42438;53.174;6.730;2023-05-14T04:31:43;9.60;1.00
56542;DHT22;42438;53.174;6.730;2023-05-14T04:34:14;9.80;1.00
56542;DHT22;42438;53.174;6.730;2023-05-14T04:36:45;9.90;1.00
56542;DHT22;42438;53.174;6.730;2023-05-14T04:39:15;9.90;1.00
56542;DHT22;42438;53.174;6.730;2023-05-14T04:41:46;10.00;1.00
56542;DHT22;42438;53.174;6.730;2023-05-14T04:44:17;10.10;1.00
56542;DHT22;42438;53.174;6.730;2023-05-14T04:46:47;10.10;1.00
56542;DHT22;42438;53.174;6.730;2023-05-14T04:49:18;10.30;1.00
56542;DHT22;42438;53.174;6.730;2023-05-14T04:51:50;10.30;1.00
56542;DHT22;42438;53.174;6.730;2023-05-14T04:54:20;10.40;1.00
56542;DHT22;42438;53.174;6.730;2023-05-14T04:56:51;10.50;1.00
56542;DHT22;42438;53.174;6.730;2023-05-14T04:59:22;10.50;1.00
56542;DHT22;42438;53.174;6.730;2023-05-14T05:01:52;10.50;1.00
56542;DHT22;42438;53.174;6.730;2023-05-14T05:04:23;10.60;1.00
56542;DHT22;42438;53.174;6.730;2023-05-14T05:06:54;10.70;1.00
56542;DHT22;42438;53.174;6.730;2023-05-14T05:09:24;10.80;1.00
56542;DHT22;42438;53.174;6.730;2023-05-14T05:11:55;10.90;1.00
56542;DHT22;42438;53.174;6.730;2023-05-14T05:14:26;11.00;1.00
56542;DHT22;42438;53.174;6.730;2023-05-14T05:16:56;11.10;1.00
56542;DHT22;42438;53.174;6.730;2023-05-14T05:19:27;11.20;1.00
56542;DHT22;42438;53.174;6.730;2023-05-14T05:21:58;11.30;1.00
56542;DHT22;42438;53.174;6.730;2023-05-14T05:24:28;11.30;1.00
56542;DHT22;42438;53.174;6.730;2023-05-14T05:26:59;11.40;1.00
56542;DHT22;42438;53.174;6.730;2023-05-14T05:29:29;11.50;1.00
56542;DHT22;42438;53.174;6.730;2023-05-14T05:32:00;11.60;1.00
56542;DHT22;42438;53.174;6.730;2023-05-14T05:34:31;11.60;1.00
56542;DHT22;42438;53.174;6.730;2023-05-14T05:37:02;11.80;1.00
56542;DHT22;42438;53.174;6.730;2023-05-14T05:39:33;11.90;1.00
56542;DHT22;42438;53.174;6.730;2023-05-14T05:42:04;12.00;1.00
56542;DHT22;42438;53.174;6.730;2023-05-14T05:44:35;12.10;1.00
56542;DHT22;42438;53.174;6.730;2023-05-14T05:47:06;12.30;1.00
56542;DHT22;42438;53.174;6.730;2023-05-14T05:49:36;12.50;1.00
56542;DHT22;42438;53.174;6.730;2023-05-14T05:52:07;13.10;1.00
56542;DHT22;42438;53.174;6.730;2023-05-14T05:54:38;13.00;1.00
56542;DHT22;42438;53.174;6.730;2023-05-14T05:57:09;13.30;1.00
56542;DHT22;42438;53.174;6.730;2023-05-14T05:59:39;13.50;1.00
56542;DHT22;42438;53.174;6.730;2023-05-14T06:02:10;14.00;99.90
56542;DHT22;42438;53.174;6.730;2023-05-14T06:04:41;14.40;99.90
56542;DHT22;42438;53.174;6.730;2023-05-14T06:07:11;14.60;99.90
56542;DHT22;42438;53.174;6.730;2023-05-14T06:09:42;14.90;99.90
56542;DHT22;42438;53.174;6.730;2023-05-14T06:12:12;15.10;7.30
56542;DHT22;42438;53.174;6.730;2023-05-14T06:14:43;15.60;1.00
56542;DHT22;42438;53.174;6.730;2023-05-14T06:17:14;15.30;1.00
56542;DHT22;42438;53.174;6.730;2023-05-14T06:19:44;15.30;99.90
56542;DHT22;42438;53.174;6.730;2023-05-14T06:22:15;15.30;1.00
56542;DHT22;42438;53.174;6.730;2023-05-14T06:24:46;15.30;1.00
56542;DHT22;42438;53.174;6.730;2023-05-14T06:27:17;15.20;1.00
56542;DHT22;42438;53.174;6.730;2023-05-14T06:29:47;15.00;1.00
56542;DHT22;42438;53.174;6.730;2023-05-14T06:32:19;15.00;1.00
56542;DHT22;42438;53.174;6.730;2023-05-14T06:34:49;14.90;35.00
56542;DHT22;42438;53.174;6.730;2023-05-14T06:37:20;14.90;51.00
56542;DHT22;42438;53.174;6.730;2023-05-14T06:39:50;14.80;1.00
56542;DHT22;42438;53.174;6.730;2023-05-14T06:42:21;14.70;33.70
56542;DHT22;42438;53.174;6.730;2023-05-14T06:44:52;14.80;99.90
56542;DHT22;42438;53.174;6.730;2023-05-14T06:47:23;14.80;95.80
56542;DHT22;42438;53.174;6.730;2023-05-14T06:49:53;14.90;99.90
56542;DHT22;42438;53.174;6.730;2023-05-14T06:52:25;14.90;53.70
56542;DHT22;42438;53.174;6.730;2023-05-14T06:54:56;15.00;30.80
56542;DHT22;42438;53.174;6.730;2023-05-14T06:57:26;15.20;23.40
56542;DHT22;42438;53.174;6.730;2023-05-14T06:59:57;15.10;1.00
56542;DHT22;42438;53.174;6.730;2023-05-14T07:02:27;15.10;1.00
56542;DHT22;42438;53.174;6.730;2023-05-14T07:04:58;15.20;1.00
56542;DHT22;42438;53.174;6.730;2023-05-14T07:07:29;15.30;1.00
56542;DHT22;42438;53.174;6.730;2023-05-14T07:09:59;15.40;1.00
56542;DHT22;42438;53.174;6.730;2023-05-14T07:12:30;15.40;1.00
56542;DHT22;42438;53.174;6.730;2023-05-14T07:15:01;15.50;1.00
56542;DHT22;42438;53.174;6.730;2023-05-14T07:17:32;15.70;99.90
56542;DHT22;42438;53.174;6.730;2023-05-14T07:20:03;15.80;99.90
56542;DHT22;42438;53.174;6.730;2023-05-14T07:22:33;15.70;47.00
56542;DHT22;42438;53.174;6.730;2023-05-14T07:25:04;15.80;99.90
56542;DHT22;42438;53.174;6.730;2023-05-14T07:27:35;16.00;98.90
56542;DHT22;42438;53.174;6.730;2023-05-14T07:30:07;16.10;1.00
56542;DHT22;42438;53.174;6.730;2023-05-14T07:32:37;16.20;99.90
56542;DHT22;42438;53.174;6.730;2023-05-14T07:35:08;16.30;16.50
56542;DHT22;42438;53.174;6.730;2023-05-14T07:37:39;16.40;99.90
56542;DHT22;42438;53.174;6.730;2023-05-14T07:40:10;16.60;1.00
56542;DHT22;42438;53.174;6.730;2023-05-14T07:42:40;16.70;99.90
56542;DHT22;42438;53.174;6.730;2023-05-14T07:45:11;16.70;1.00
56542;DHT22;42438;53.174;6.730;2023-05-14T07:47:41;16.70;99.90
56542;DHT22;42438;53.174;6.730;2023-05-14T07:50:12;16.80;99.90
56542;DHT22;42438;53.174;6.730;2023-05-14T07:52:43;16.90;1.00
56542;DHT22;42438;53.174;6.730;2023-05-14T07:55:14;16.80;99.90
56542;DHT22;42438;53.174;6.730;2023-05-14T07:57:45;16.90;99.90
56542;DHT22;42438;53.174;6.730;2023-05-14T08:00:15;16.80;99.90
56542;DHT22;42438;53.174;6.730;2023-05-14T08:02:46;16.90;10.20
56542;DHT22;42438;53.174;6.730;2023-05-14T08:05:18;17.10;27.10
56542;DHT22;42438;53.174;6.730;2023-05-14T08:07:48;17.30;37.40
56542;DHT22;42438;53.174;6.730;2023-05-14T08:10:19;17.30;1.00
56542;DHT22;42438;53.174;6.730;2023-05-14T08:12:50;17.30;1.00
56542;DHT22;42438;53.174;6.730;2023-05-14T08:15:20;17.20;99.90
56542;DHT22;42438;53.174;6.730;2023-05-14T08:17:51;17.30;99.90
56542;DHT22;42438;53.174;6.730;2023-05-14T08:20:22;17.30;99.90
56542;DHT22;42438;53.174;6.730;2023-05-14T08:22:53;17.40;99.90
56542;DHT22;42438;53.174;6.730;2023-05-14T08:25:23;17.40;99.90
56542;DHT22;42438;53.174;6.730;2023-05-14T08:27:54;17.50;99.90
56542;DHT22;42438;53.174;6.730;2023-05-14T08:30:25;17.60;99.90
56542;DHT22;42438;53.174;6.730;2023-05-14T08:32:56;17.70;99.90
56542;DHT22;42438;53.174;6.730;2023-05-14T08:35:27;17.90;99.90
56542;DHT22;42438;53.174;6.730;2023-05-14T08:37:58;17.90;99.90
56542;DHT22;42438;53.174;6.730;2023-05-14T08:40:28;18.10;99.90
56542;DHT22;42438;53.174;6.730;2023-05-14T08:43:00;18.30;99.90
56542;DHT22;42438;53.174;6.730;2023-05-14T08:45:32;18.50;99.90
56542;DHT22;42438;53.174;6.730;2023-05-14T08:48:06;18.70;79.10
56542;DHT22;42438;53.174;6.730;2023-05-14T08:50:38;18.80;35.60
56542;DHT22;42438;53.174;6.730;2023-05-14T08:53:08;18.70;18.40
56542;DHT22;42438;53.174;6.730;2023-05-14T08:55:42;18.70;15.90
56542;DHT22;42438;53.174;6.730;2023-05-14T08:58:13;18.40;8.60
56542;DHT22;42438;53.174;6.730;2023-05-14T09:00:44;18.50;14.30
56542;DHT22;42438;53.174;6.730;2023-05-14T09:03:15;18.70;15.40
56542;DHT22;42438;53.174;6.730;2023-05-14T09:05:48;18.80;1.00
56542;DHT22;42438;53.174;6.730;2023-05-14T09:08:21;19.10;1.00
56542;DHT22;42438;53.174;6.730;2023-05-14T09:10:51;19.30;1.00
56542;DHT22;42438;53.174;6.730;2023-05-14T09:13:22;19.50;1.00
56542;DHT22;42438;53.174;6.730;2023-05-14T09:15:53;19.70;1.00
56542;DHT22;42438;53.174;6.730;2023-05-14T09:18:24;19.80;1.00
56542;DHT22;42438;53.174;6.730;2023-05-14T09:20:55;19.90;1.00
56542;DHT22;42438;53.174;6.730;2023-05-14T09:23:26;20.00;1.00
56542;DHT22;42438;53.174;6.730;2023-05-14T09:26:04;20.10;1.00
56542;DHT22;42438;53.174;6.730;2023-05-14T09:28:39;20.20;1.00
56542;DHT22;42438;53.174;6.730;2023-05-14T09:31:10;20.30;1.00
56542;DHT22;42438;53.174;6.730;2023-05-14T09:33:41;20.40;1.00
56542;DHT22;42438;53.174;6.730;2023-05-14T09:36:12;20.50;1.00
56542;DHT22;42438;53.174;6.730;2023-05-14T09:38:43;20.60;1.00
56542;DHT22;42438;53.174;6.730;2023-05-14T09:41:13;20.70;1.00
56542;DHT22;42438;53.174;6.730;2023-05-14T09:43:44;20.70;1.00
56542;DHT22;42438;53.174;6.730;2023-05-14T09:46:15;20.70;1.00
56542;DHT22;42438;53.174;6.730;2023-05-14T09:48:46;20.60;1.00
56542;DHT22;42438;53.174;6.730;2023-05-14T09:51:17;20.70;1.00
56542;DHT22;42438;53.174;6.730;2023-05-14T09:53:47;20.70;1.00
56542;DHT22;42438;53.174;6.730;2023-05-14T09:56:20;20.80;1.00
56542;DHT22;42438;53.174;6.730;2023-05-14T09:58:51;20.80;1.00
56542;DHT22;42438;53.174;6.730;2023-05-14T10:01:21;21.00;1.00
56542;DHT22;42438;53.174;6.730;2023-05-14T10:03:52;21.10;1.00
56542;DHT22;42438;53.174;6.730;2023-05-14T10:06:29;21.20;1.00
56542;DHT22;42438;53.174;6.730;2023-05-14T10:09:03;21.40;1.00
56542;DHT22;42438;53.174;6.730;2023-05-14T10:11:37;21.50;1.00
56542;DHT22;42438;53.174;6.730;2023-05-14T10:14:10;21.80;1.00
56542;DHT22;42438;53.174;6.730;2023-05-14T10:16:49;21.90;1.00
56542;DHT22;42438;53.174;6.730;2023-05-14T10:19:23;21.90;1.00
56542;DHT22;42438;53.174;6.730;2023-05-14T10:22:04;22.10;1.00
56542;DHT22;42438;53.174;6.730;2023-05-14T10:24:35;21.90;1.00
56542;DHT22;42438;53.174;6.730;2023-05-14T10:27:08;21.90;1.00
56542;DHT22;42438;53.174;6.730;2023-05-14T10:29:38;21.60;1.00
56542;DHT22;42438;53.174;6.730;2023-05-14T10:32:09;21.60;1.00
56542;DHT22;42438;53.174;6.730;2023-05-14T10:34:41;21.60;1.00
56542;DHT22;42438;53.174;6.730;2023-05-14T10:37:23;21.50;1.00
56542;DHT22;42438;53.174;6.730;2023-05-14T10:40:00;21.60;1.00
56542;DHT22;42438;53.174;6.730;2023-05-14T10:42:36;21.60;1.00
56542;DHT22;42438;53.174;6.730;2023-05-14T10:45:13;21.60;1.00
56542;DHT22;42438;53.174;6.730;2023-05-14T10:47:45;21.70;1.00
56542;DHT22;42438;53.174;6.730;2023-05-14T10:50:16;21.50;1.00
56542;DHT22;42438;53.174;6.730;2023-05-14T10:52:48;21.50;1.00
56542;DHT22;42438;53.174;6.730;2023-05-14T10:55:20;21.50;1.00
56542;DHT22;42438;53.174;6.730;2023-05-14T10:57:51;21.40;1.00
56542;DHT22;42438;53.174;6.730;2023-05-14T11:00:24;21.40;1.00
56542;DHT22;42438;53.174;6.730;2023-05-14T11:02:57;21.50;1.00
56542;DHT22;42438;53.174;6.730;2023-05-14T11:05:28;21.50;1.00
56542;DHT22;42438;53.174;6.730;2023-05-14T11:07:59;21.70;1.00
56542;DHT22;42438;53.174;6.730;2023-05-14T11:10:31;21.80;1.00
56542;DHT22;42438;53.174;6.730;2023-05-14T11:13:02;21.90;1.00
56542;DHT22;42438;53.174;6.730;2023-05-14T11:15:32;22.00;1.00
56542;DHT22;42438;53.174;6.730;2023-05-14T11:18:04;22.20;1.00
56542;DHT22;42438;53.174;6.730;2023-05-14T11:20:34;22.30;1.00
56542;DHT22;42438;53.174;6.730;2023-05-14T11:23:05;22.50;1.00
56542;DHT22;42438;53.174;6.730;2023-05-14T11:25:36;22.50;1.00
56542;DHT22;42438;53.174;6.730;2023-05-14T11:28:07;22.60;1.00
56542;DHT22;42438;53.174;6.730;2023-05-14T11:30:37;22.80;1.00
56542;DHT22;42438;53.174;6.730;2023-05-14T11:33:08;22.90;1.00
56542;DHT22;42438;53.174;6.730;2023-05-14T11:35:38;23.10;1.00
56542;DHT22;42438;53.174;6.730;2023-05-14T11:38:14;23.40;1.00
56542;DHT22;42438;53.174;6.730;2023-05-14T11:40:52;23.70;1.00
56542;DHT22;42438;53.174;6.730;2023-05-14T11:43:24;24.00;1.00
56542;DHT22;42438;53.174;6.730;2023-05-14T11:45:55;24.00;1.00
56542;DHT22;42438;53.174;6.730;2023-05-14T11:48:26;24.00;1.00
56542;DHT22;42438;53.174;6.730;2023-05-14T11:50:57;24.10;1.00
56542;DHT22;42438;53.174;6.730;2023-05-14T11:53:29;24.30;1.00
56542;DHT22;42438;53.174;6.730;2023-05-14T11:56:01;24.30;1.00
56542;DHT22;42438;53.174;6.730;2023-05-14T11:58:32;24.00;1.00
56542;DHT22;42438;53.174;6.730;2023-05-14T12:01:03;24.00;1.00
56542;DHT22;42438;53.174;6.730;2023-05-14T12:03:34;24.10;1.00
56542;DHT22;42438;53.174;6.730;2023-05-14T12:06:05;24.30;1.00
56542;DHT22;42438;53.174;6.730;2023-05-14T12:08:37;24.40;1.00
56542;DHT22;42438;53.174;6.730;2023-05-14T12:11:08;24.60;1.00
56542;DHT22;42438;53.174;6.730;2023-05-14T12:13:38;24.40;1.00
56542;DHT22;42438;53.174;6.730;2023-05-14T12:16:09;24.20;1.00
56542;DHT22;42438;53.174;6.730;2023-05-14T12:18:40;24.20;1.00
56542;DHT22;42438;53.174;6.730;2023-05-14T12:21:12;24.00;1.00
56542;DHT22;42438;53.174;6.730;2023-05-14T12:23:42;24.10;1.00
56542;DHT22;42438;53.174;6.730;2023-05-14T12:26:13;24.20;1.00
56542;DHT22;42438;53.174;6.730;2023-05-14T12:28:46;24.30;1.00
56542;DHT22;42438;53.174;6.730;2023-05-14T12:31:17;24.30;1.00
56542;DHT22;42438;53.174;6.730;2023-05-14T12:33:47;24.20;1.00
56542;DHT22;42438;53.174;6.730;2023-05-14T12:36:18;24.30;1.00
56542;DHT22;42438;53.174;6.730;2023-05-14T12:38:49;24.40;1.00
56542;DHT22;42438;53.174;6.730;2023-05-14T12:41:20;24.20;1.00
56542;DHT22;42438;53.174;6.730;2023-05-14T12:43:51;24.30;1.00
56542;DHT22;42438;53.174;6.730;2023-05-14T12:46:22;24.30;1.00
56542;DHT22;42438;53.174;6.730;2023-05-14T12:48:53;24.20;1.00
56542;DHT22;42438;53.174;6.730;2023-05-14T12:51:24;24.00;1.00
56542;DHT22;42438;53.174;6.730;2023-05-14T12:53:55;24.00;1.00
56542;DHT22;42438;53.174;6.730;2023-05-14T12:56:25;24.10;1.00
56542;DHT22;42438;53.174;6.730;2023-05-14T12:59:00;24.10;1.00
56542;DHT22;42438;53.174;6.730;2023-05-14T13:01:31;24.00;1.00
56542;DHT22;42438;53.174;6.730;2023-05-14T13:04:02;24.00;1.00
56542;DHT22;42438;53.174;6.730;2023-05-14T13:06:33;24.10;1.00
56542;DHT22;42438;53.174;6.730;2023-05-14T13:09:03;24.00;1.00
56542;DHT22;42438;53.174;6.730;2023-05-14T13:11:34;23.90;1.00
56542;DHT22;42438;53.174;6.730;2023-05-14T13:14:05;23.80;1.00
56542;DHT22;42438;53.174;6.730;2023-05-14T13:16:35;23.60;1.00
56542;DHT22;42438;53.174;6.730;2023-05-14T13:19:06;23.50;1.00
56542;DHT22;42438;53.174;6.730;2023-05-14T13:21:37;23.40;1.00
56542;DHT22;42438;53.174;6.730;2023-05-14T13:24:08;23.30;1.00
56542;DHT22;42438;53.174;6.730;2023-05-14T13:26:39;23.40;1.00
56542;DHT22;42438;53.174;6.730;2023-05-14T13:29:10;23.30;1.00
56542;DHT22;42438;53.174;6.730;2023-05-14T13:31:40;23.30;1.00
56542;DHT22;42438;53.174;6.730;2023-05-14T13:34:11;23.40;1.00
56542;DHT22;42438;53.174;6.730;2023-05-14T13:36:42;23.40;1.00
56542;DHT22;42438;53.174;6.730;2023-05-14T13:39:13;23.30;1.00
56542;DHT22;42438;53.174;6.730;2023-05-14T13:41:43;23.30;1.00
56542;DHT22;42438;53.174;6.730;2023-05-14T13:44:14;23.40;1.00
56542;DHT22;42438;53.174;6.730;2023-05-14T13:46:45;23.60;1.00
56542;DHT22;42438;53.174;6.730;2023-05-14T13:49:16;23.70;1.00
56542;DHT22;42438;53.174;6.730;2023-05-14T13:51:46;23.70;1.00
56542;DHT22;42438;53.174;6.730;2023-05-14T13:54:17;23.70;1.00
56542;DHT22;42438;53.174;6.730;2023-05-14T13:56:47;23.70;1.00
56542;DHT22;42438;53.174;6.730;2023-05-14T13:59:18;23.80;1.00
56542;DHT22;42438;53.174;6.730;2023-05-14T14:01:49;23.90;1.00
56542;DHT22;42438;53.174;6.730;2023-05-14T14:04:20;24.00;1.00
56542;DHT22;42438;53.174;6.730;2023-05-14T14:06:51;24.10;1.00
56542;DHT22;42438;53.174;6.730;2023-05-14T14:09:23;24.10;1.00
56542;DHT22;42438;53.174;6.730;2023-05-14T14:11:53;24.10;1.00
56542;DHT22;42438;53.174;6.730;2023-05-14T14:14:24;24.10;1.00
56542;DHT22;42438;53.174;6.730;2023-05-14T14:16:55;24.10;1.00
56542;DHT22;42438;53.174;6.730;2023-05-14T14:19:25;24.10;1.00
56542;DHT22;42438;53.174;6.730;2023-05-14T14:21:56;24.20;1.00
56542;DHT22;42438;53.174;6.730;2023-05-14T14:24:26;24.10;1.00
56542;DHT22;42438;53.174;6.730;2023-05-14T14:26:57;24.10;1.00
56542;DHT22;42438;53.174;6.730;2023-05-14T14:29:28;24.00;1.00
56542;DHT22;42438;53.174;6.730;2023-05-14T14:32:00;23.90;1.00
56542;DHT22;42438;53.174;6.730;2023-05-14T14:34:31;23.90;1.00
56542;DHT22;42438;53.174;6.730;2023-05-14T14:37:01;23.80;1.00
56542;DHT22;42438;53.174;6.730;2023-05-14T14:39:32;23.70;1.00
56542;DHT22;42438;53.174;6.730;2023-05-14T14:42:03;23.80;1.00
56542;DHT22;42438;53.174;6.730;2023-05-14T14:44:34;23.80;1.00
56542;DHT22;42438;53.174;6.730;2023-05-14T14:47:05;23.80;1.00
56542;DHT22;42438;53.174;6.730;2023-05-14T14:49:35;23.80;1.00
56542;DHT22;42438;53.174;6.730;2023-05-14T14:52:06;23.70;1.00
56542;DHT22;42438;53.174;6.730;2023-05-14T14:54:36;23.70;1.00
56542;DHT22;42438;53.174;6.730;2023-05-14T14:57:07;23.60;1.00
56542;DHT22;42438;53.174;6.730;2023-05-14T14:59:38;23.50;1.00
56542;DHT22;42438;53.174;6.730;2023-05-14T15:02:09;23.30;1.00
56542;DHT22;42438;53.174;6.730;2023-05-14T15:04:39;23.30;1.00
56542;DHT22;42438;53.174;6.730;2023-05-14T15:07:10;23.40;1.00
56542;DHT22;42438;53.174;6.730;2023-05-14T15:09:41;23.30;1.00
56542;DHT22;42438;53.174;6.730;2023-05-14T15:12:11;23.30;1.00
56542;DHT22;42438;53.174;6.730;2023-05-14T15:14:43;23.10;1.00
56542;DHT22;42438;53.174;6.730;2023-05-14T15:17:14;23.00;1.00
56542;DHT22;42438;53.174;6.730;2023-05-14T15:19:44;23.00;1.00
56542;DHT22;42438;53.174;6.730;2023-05-14T15:22:15;22.80;1.00
56542;DHT22;42438;53.174;6.730;2023-05-14T15:24:45;22.80;1.00
56542;DHT22;42438;53.174;6.730;2023-05-14T15:27:16;22.80;1.00
56542;DHT22;42438;53.174;6.730;2023-05-14T15:29:47;22.80;1.00
56542;DHT22;42438;53.174;6.730;2023-05-14T15:32:17;22.80;1.00
56542;DHT22;42438;53.174;6.730;2023-05-14T15:34:48;22.80;1.00
56542;DHT22;42438;53.174;6.730;2023-05-14T15:37:19;22.70;1.00
56542;DHT22;42438;53.174;6.730;2023-05-14T15:39:49;22.70;1.00
56542;DHT22;42438;53.174;6.730;2023-05-14T15:42:20;22.50;1.00
56542;DHT22;42438;53.174;6.730;2023-05-14T15:44:51;22.40;1.00
56542;DHT22;42438;53.174;6.730;2023-05-14T15:47:21;22.30;1.00
56542;DHT22;42438;53.174;6.730;2023-05-14T15:49:52;22.10;1.00
56542;DHT22;42438;53.174;6.730;2023-05-14T15:52:23;21.90;1.00
56542;DHT22;42438;53.174;6.730;2023-05-14T15:54:54;21.80;1.00
56542;DHT22;42438;53.174;6.730;2023-05-14T15:57:26;21.80;1.00
56542;DHT22;42438;53.174;6.730;2023-05-14T15:59:57;21.60;1.00
56542;DHT22;42438;53.174;6.730;2023-05-14T16:02:28;21.70;1.00
56542;DHT22;42438;53.174;6.730;2023-05-14T16:04:59;21.60;1.00
56542;DHT22;42438;53.174;6.730;2023-05-14T16:07:30;21.50;1.00
56542;DHT22;42438;53.174;6.730;2023-05-14T16:10:01;21.40;1.00
56542;DHT22;42438;53.174;6.730;2023-05-14T16:12:31;21.40;1.00
56542;DHT22;42438;53.174;6.730;2023-05-14T16:15:02;21.30;1.00